createdAt,value
2023-02-22T10:55:20.442Z,3.60
2023-02-22T10:56:23.743Z,3.02
2023-02-22T10:57:27.009Z,3.56
2023-02-22T10:58:30.291Z,3.67
2023-02-22T10:59:33.491Z,4.12
2023-02-22T11:00:37.074Z,3.91
2023-02-22T11:01:40.215Z,3.70
2023-02-22T11:02:43.221Z,4.02
2023-02-22T11:03:46.410Z,3.60
2023-02-22T11:04:49.999Z,3.60
2023-02-22T11:05:53.597Z,4.55
2023-02-22T11:06:56.561Z,3.85
2023-02-22T11:07:59.486Z,4.18
2023-02-22T11:09:02.918Z,4.32
2023-02-22T11:10:06.118Z,3.93
2023-02-22T11:11:09.286Z,3.88
2023-02-22T11:12:12.376Z,3.58
2023-02-22T11:13:15.356Z,3.95
2023-02-22T11:14:18.321Z,4.42
2023-02-22T11:15:21.319Z,4.22
2023-02-22T11:16:24.503Z,3.86
2023-02-22T11:17:28.174Z,4.46
2023-02-22T11:18:31.472Z,4.21
2023-02-22T11:19:34.535Z,4.34
2023-02-22T11:20:37.414Z,4.38
2023-02-22T11:21:40.501Z,4.84
2023-02-22T11:22:43.468Z,4.46
2023-02-22T11:23:46.649Z,3.75
2023-02-22T11:24:49.771Z,4.12
2023-02-22T11:25:52.720Z,4.75
2023-02-22T11:26:56.022Z,4.07
2023-02-22T11:27:58.771Z,4.08
2023-02-22T11:29:02.400Z,4.22
2023-02-22T11:30:05.892Z,4.26
2023-02-22T11:31:08.971Z,4.34
2023-02-22T11:32:12.478Z,4.42
2023-02-22T11:33:15.610Z,4.21
2023-02-22T11:34:18.886Z,4.16
2023-02-22T11:35:21.967Z,4.11
2023-02-22T11:36:25.047Z,4.22
2023-02-22T11:37:28.320Z,4.32
2023-02-22T11:38:31.297Z,4.60
2023-02-22T11:39:34.408Z,4.02
2023-02-22T11:40:37.360Z,4.30
2023-02-22T11:41:40.451Z,4.12
2023-02-22T11:42:43.513Z,4.02
2023-02-22T11:43:46.494Z,3.69
2023-02-22T11:44:49.986Z,4.34
2023-02-22T11:45:58.992Z,4.14
2023-02-22T11:46:57.690Z,4.14
2023-02-22T11:48:00.992Z,3.94
2023-02-22T11:49:04.372Z,4.14
2023-02-22T11:50:08.004Z,3.98
2023-02-22T11:51:14.116Z,4.07
2023-02-22T11:52:15.829Z,4.50
2023-02-22T11:53:18.919Z,3.70
2023-02-22T11:54:22.305Z,3.91
2023-02-22T11:55:41.449Z,4.18
2023-02-22T11:56:37.814Z,4.23
2023-02-22T11:57:35.222Z,4.04
2023-02-22T11:58:38.520Z,4.37
2023-02-22T11:59:41.829Z,4.33
2023-02-22T12:00:44.985Z,4.12
2023-02-22T12:01:47.858Z,4.31
2023-02-22T12:02:56.865Z,4.12
2023-02-22T12:03:55.973Z,4.07
2023-02-22T12:04:59.088Z,3.68
2023-02-22T12:06:02.144Z,3.86
2023-02-22T12:07:04.987Z,3.78
2023-02-22T12:08:19.234Z,4.10
2023-02-22T12:09:12.882Z,3.81
2023-02-22T12:10:16.003Z,3.98
2023-02-22T12:11:19.061Z,3.88
2023-02-22T12:12:22.242Z,3.83
2023-02-22T12:13:25.304Z,3.75
2023-02-22T12:14:28.593Z,3.85
2023-02-22T12:15:31.718Z,3.87
2023-02-22T12:16:35.683Z,4.15
2023-02-22T12:17:40.252Z,3.91
2023-02-22T12:18:43.272Z,3.37
2023-02-22T12:19:46.452Z,3.82
2023-02-22T12:20:49.524Z,3.95
2023-02-22T12:21:52.910Z,3.75
2023-02-22T12:22:55.882Z,4.18
2023-02-22T12:23:58.972Z,3.94
2023-02-22T12:25:09.406Z,3.43
2023-02-22T12:26:06.618Z,3.70
2023-02-22T12:27:09.664Z,4.02
2023-02-22T12:28:23.728Z,3.96
2023-02-22T12:29:16.962Z,3.55
2023-02-22T12:30:20.372Z,3.66
2023-02-22T12:31:23.108Z,3.64
2023-02-22T12:32:26.233Z,4.26
2023-02-22T12:33:29.166Z,3.57
2023-02-22T12:34:32.210Z,4.09
2023-02-22T12:35:35.316Z,3.96
2023-02-22T12:36:37.985Z,4.18
2023-02-22T12:37:40.957Z,4.09
2023-02-22T12:38:43.769Z,3.71
2023-02-22T12:39:53.150Z,3.98
2023-02-22T12:40:51.730Z,4.44
2023-02-22T12:41:54.610Z,4.01
2023-02-22T12:42:57.629Z,4.15
2023-02-22T12:44:00.558Z,4.12
2023-02-22T12:45:05.108Z,4.45
2023-02-22T12:46:07.799Z,4.16
2023-02-22T12:47:10.719Z,4.15
2023-02-22T12:48:13.399Z,4.33
2023-02-22T12:49:15.957Z,4.08
2023-02-22T12:50:18.949Z,4.44
2023-02-22T12:51:22.313Z,3.85
2023-02-22T12:52:25.305Z,4.42
2023-02-22T12:53:27.958Z,4.66
2023-02-22T12:54:30.738Z,4.08
2023-02-22T12:55:33.608Z,3.97
2023-02-22T12:56:36.393Z,3.98
2023-02-22T12:57:39.099Z,3.99
2023-02-22T12:58:41.932Z,4.25
2023-02-22T12:59:44.695Z,4.25
2023-02-22T13:00:47.775Z,3.95
2023-02-22T13:01:50.746Z,4.11
2023-02-22T13:02:53.423Z,4.24
2023-02-22T13:03:56.513Z,4.78
2023-02-22T13:04:59.618Z,4.30
2023-02-22T13:06:02.363Z,4.58
2023-02-22T13:07:05.541Z,4.29
2023-02-22T13:08:08.205Z,4.10
2023-02-22T13:09:11.080Z,3.88
2023-02-22T13:10:14.052Z,3.86
2023-02-22T13:11:17.194Z,4.19
2023-02-22T13:12:20.217Z,4.18
2023-02-22T13:13:23.099Z,4.29
2023-02-22T13:14:25.784Z,4.43
2023-02-22T13:15:28.543Z,4.78
2023-02-22T13:16:31.528Z,4.36
2023-02-22T13:17:34.834Z,4.05
2023-02-22T13:18:37.870Z,4.15
2023-02-22T13:19:40.764Z,4.50
2023-02-22T13:20:43.646Z,4.49
2023-02-22T13:21:46.528Z,4.23
2023-02-22T13:22:49.886Z,4.51
2023-02-22T13:23:53.088Z,4.15
2023-02-22T13:24:56.153Z,4.17
2023-02-22T13:25:59.140Z,4.28
2023-02-22T13:27:02.036Z,3.92
2023-02-22T13:28:05.480Z,3.83
2023-02-22T13:29:08.357Z,4.36
2023-02-22T13:30:11.035Z,4.12
2023-02-22T13:31:14.145Z,4.27
2023-02-22T13:32:17.233Z,3.82
2023-02-22T13:33:20.289Z,4.32
2023-02-22T13:34:23.356Z,4.54
2023-02-22T13:35:26.444Z,4.58
2023-02-22T13:36:29.636Z,4.46
2023-02-22T13:37:34.198Z,4.26
2023-02-22T13:38:37.311Z,4.28
2023-02-22T13:39:40.295Z,4.33
2023-02-22T13:40:43.277Z,3.84
2023-02-22T13:41:46.236Z,4.25
2023-02-22T13:42:49.130Z,4.38
2023-02-22T13:43:52.392Z,4.36
2023-02-22T13:44:55.584Z,3.95
2023-02-22T13:45:58.793Z,4.15
2023-02-22T13:47:01.734Z,4.17
2023-02-22T13:48:04.663Z,3.93
2023-02-22T13:49:08.029Z,4.15
2023-02-22T13:50:10.974Z,4.54
2023-02-22T13:51:13.954Z,4.39
2023-02-22T13:52:17.038Z,3.95
2023-02-22T13:53:19.810Z,4.14
2023-02-22T13:54:23.219Z,4.17
2023-02-22T13:55:26.164Z,4.29
2023-02-22T13:56:29.241Z,4.28
2023-02-22T13:57:31.908Z,3.62
2023-02-22T13:58:34.992Z,4.26
2023-02-22T13:59:37.786Z,4.15
2023-02-22T14:00:40.328Z,4.23
2023-02-22T14:01:43.224Z,3.91
2023-02-22T14:02:46.206Z,3.68
2023-02-22T14:03:49.473Z,3.93
2023-02-22T14:04:52.676Z,4.18
2023-02-22T14:05:55.827Z,3.92
2023-02-22T14:06:58.702Z,3.69
2023-02-22T14:08:01.483Z,3.95
2023-02-22T14:09:04.353Z,4.20
2023-02-22T14:10:07.102Z,3.87
2023-02-22T14:11:09.995Z,4.21
2023-02-22T14:12:12.974Z,4.11
2023-02-22T14:13:15.545Z,4.12
2023-02-22T14:14:18.223Z,4.01
2023-02-22T14:15:30.503Z,4.25
2023-02-22T14:16:25.453Z,4.50
2023-02-22T14:17:28.195Z,4.04
2023-02-22T14:18:31.137Z,4.08
2023-02-22T14:19:33.853Z,4.00
2023-02-22T14:20:37.170Z,3.75
2023-02-22T14:21:40.385Z,4.21
2023-02-22T14:22:45.687Z,4.08
2023-02-22T14:23:48.281Z,3.90
2023-02-22T14:24:50.952Z,3.36
2023-02-22T14:25:54.133Z,3.24
2023-02-22T14:26:56.807Z,3.59
2023-02-22T14:27:59.791Z,3.32
2023-02-22T14:29:02.549Z,3.17
2023-02-22T14:30:05.668Z,3.66
2023-02-22T14:31:08.861Z,3.72
2023-02-22T14:32:12.463Z,3.12
2023-02-22T14:33:15.503Z,3.19
2023-02-22T14:34:18.477Z,3.30
2023-02-22T14:35:27.450Z,3.74
2023-02-22T14:36:26.153Z,3.81
2023-02-22T14:37:29.029Z,3.77
2023-02-22T14:38:32.005Z,2.96
2023-02-22T14:39:34.992Z,3.18
2023-02-22T14:40:37.860Z,3.38
2023-02-22T14:41:41.058Z,3.68
2023-02-22T14:42:44.042Z,3.42
2023-02-22T14:43:46.895Z,3.19
2023-02-22T14:44:50.241Z,3.03
2023-02-22T14:45:53.652Z,2.98
2023-02-22T14:46:57.050Z,3.21
2023-02-22T14:48:00.127Z,3.04
2023-02-22T14:49:02.902Z,3.42
2023-02-22T14:50:05.885Z,3.15
2023-02-22T14:51:20.583Z,3.13
2023-02-22T14:52:13.281Z,3.02
2023-02-22T14:53:16.346Z,3.26
2023-02-22T14:54:19.533Z,3.62
2023-02-22T14:55:22.622Z,3.24
2023-02-22T14:56:25.390Z,3.02
2023-02-22T14:57:29.833Z,3.47
2023-02-22T14:58:32.874Z,3.07
2023-02-22T14:59:35.952Z,3.43
2023-02-22T15:00:39.182Z,3.06
2023-02-22T15:01:55.314Z,3.32
2023-02-22T15:02:47.325Z,3.15
2023-02-22T15:04:01.968Z,3.47
2023-02-22T15:04:54.585Z,3.28
2023-02-22T15:05:57.496Z,3.16
2023-02-22T15:07:00.373Z,3.28
2023-02-22T15:08:03.552Z,3.40
2023-02-22T15:09:06.531Z,3.41
2023-02-22T15:10:09.511Z,3.39
2023-02-22T15:11:12.485Z,3.78
2023-02-22T15:12:15.569Z,3.43
2023-02-22T15:13:18.445Z,3.73
2023-02-22T15:14:26.157Z,3.92
2023-02-22T15:15:26.060Z,3.33
2023-02-22T15:16:29.069Z,3.66
2023-02-22T15:17:31.891Z,3.98
2023-02-22T15:18:34.872Z,3.58
2023-02-22T15:19:37.734Z,3.68
2023-02-22T15:20:40.714Z,3.72
2023-02-22T15:21:43.692Z,3.67
2023-02-22T15:22:46.781Z,3.48
2023-02-22T15:23:50.172Z,3.85
2023-02-22T15:24:53.443Z,3.48
2023-02-22T15:25:56.216Z,3.47
2023-02-22T15:27:02.533Z,3.52
2023-02-22T15:28:03.637Z,3.26
2023-02-22T15:29:06.699Z,3.18
2023-02-22T15:30:09.721Z,3.75
2023-02-22T15:31:12.541Z,4.12
2023-02-22T15:32:15.525Z,4.29
2023-02-22T15:33:19.070Z,3.87
2023-02-22T15:34:22.284Z,3.54
2023-02-22T15:35:25.158Z,3.36
2023-02-22T15:36:28.136Z,3.48
2023-02-22T15:37:31.139Z,3.18
2023-02-22T15:38:34.094Z,3.04
2023-02-22T15:39:37.601Z,3.50
2023-02-22T15:40:40.493Z,3.19
2023-02-22T15:41:43.439Z,3.20
2023-02-22T15:42:46.322Z,3.29
2023-02-22T15:43:49.281Z,3.62
2023-02-22T15:44:52.260Z,3.65
2023-02-22T15:45:55.485Z,3.06
2023-02-22T15:46:58.445Z,3.29
2023-02-22T15:48:01.298Z,2.92
2023-02-22T15:49:04.169Z,3.10
2023-02-22T15:50:07.356Z,3.36
2023-02-22T15:51:10.452Z,2.98
2023-02-22T15:52:13.451Z,3.54
2023-02-22T15:53:16.391Z,3.38
2023-02-22T15:54:27.059Z,2.95
2023-02-22T15:55:25.693Z,3.21
2023-02-22T15:56:28.724Z,3.41
2023-02-22T15:57:31.678Z,3.32
2023-02-22T15:58:34.669Z,3.09
2023-02-22T15:59:37.736Z,2.91
2023-02-22T16:00:40.940Z,2.94
2023-02-22T16:01:43.865Z,2.83
2023-02-22T16:02:47.695Z,3.17
2023-02-22T16:03:50.762Z,3.21
2023-02-22T16:04:59.583Z,3.15
2023-02-22T16:05:59.173Z,3.23
2023-02-22T16:07:02.155Z,3.44
2023-02-22T16:08:05.129Z,3.45
2023-02-22T16:09:08.211Z,2.78
2023-02-22T16:10:10.989Z,2.75
2023-02-22T16:11:13.753Z,2.72
2023-02-22T16:12:16.640Z,2.79
2023-02-22T16:13:31.038Z,3.00
2023-02-22T16:14:24.117Z,2.94
2023-02-22T16:15:26.994Z,2.97
2023-02-22T16:16:30.138Z,3.19
2023-02-22T16:17:33.180Z,3.27
2023-02-22T16:18:36.093Z,3.39
2023-02-22T16:19:41.394Z,3.08
2023-02-22T16:20:43.956Z,3.17
2023-02-22T16:21:47.020Z,3.36
2023-02-22T16:22:49.992Z,3.28
2023-02-22T16:23:52.972Z,3.23
2023-02-22T16:24:56.033Z,2.69
2023-02-22T16:25:59.118Z,3.49
2023-02-22T16:27:02.015Z,3.18
2023-02-22T16:28:04.765Z,3.13
2023-02-22T16:29:07.646Z,3.01
2023-02-22T16:30:23.260Z,3.10
2023-02-22T16:31:15.390Z,3.19
2023-02-22T16:32:18.919Z,3.27
2023-02-22T16:33:21.912Z,3.39
2023-02-22T16:34:25.086Z,3.08
2023-02-22T16:35:28.117Z,3.35
2023-02-22T16:36:31.137Z,3.16
2023-02-22T16:37:34.029Z,3.20
2023-02-22T16:38:36.996Z,3.21
2023-02-22T16:39:41.729Z,3.22
2023-02-22T16:40:44.804Z,3.31
2023-02-22T16:41:47.557Z,3.49
2023-02-22T16:42:50.554Z,3.60
2023-02-22T16:43:53.345Z,3.42
2023-02-22T16:44:56.209Z,3.51
2023-02-22T16:45:59.567Z,3.05
2023-02-22T16:47:02.566Z,3.42
2023-02-22T16:48:05.948Z,3.25
2023-02-22T16:49:09.217Z,3.40
2023-02-22T16:50:12.306Z,3.22
2023-02-22T16:51:15.286Z,3.43
2023-02-22T16:52:18.456Z,2.77
2023-02-22T16:53:21.856Z,2.77
2023-02-22T16:54:24.718Z,3.34
2023-02-22T16:55:27.691Z,3.08
2023-02-22T16:56:31.267Z,2.98
2023-02-22T16:57:34.158Z,3.03
2023-02-22T16:58:37.550Z,3.04
2023-02-22T16:59:40.635Z,3.14
2023-02-22T17:00:44.122Z,3.35
2023-02-22T17:01:47.023Z,2.95
2023-02-22T17:02:49.656Z,3.16
2023-02-22T17:03:52.539Z,3.64
2023-02-22T17:04:55.314Z,3.62
2023-02-22T17:05:58.178Z,3.47
2023-02-22T17:07:02.622Z,3.26
2023-02-22T17:08:05.771Z,3.51
2023-02-22T17:09:08.745Z,3.41
2023-02-22T17:10:11.647Z,3.27
2023-02-22T17:11:14.826Z,2.95
2023-02-22T17:12:18.008Z,2.78
2023-02-22T17:13:24.928Z,3.10
2023-02-22T17:14:25.785Z,3.14
2023-02-22T17:15:28.666Z,2.91
2023-02-22T17:16:31.527Z,2.93
2023-02-22T17:17:34.404Z,2.94
2023-02-22T17:18:37.394Z,3.10
2023-02-22T17:19:40.582Z,3.40
2023-02-22T17:20:43.746Z,3.18
2023-02-22T17:21:46.629Z,3.12
2023-02-22T17:22:49.577Z,3.37
2023-02-22T17:23:52.389Z,3.14
2023-02-22T17:24:55.567Z,2.85
2023-02-22T17:25:58.530Z,3.25
2023-02-22T17:27:01.523Z,2.95
2023-02-22T17:28:04.390Z,2.93
2023-02-22T17:29:07.264Z,2.88
2023-02-22T17:30:10.276Z,3.36
2023-02-22T17:31:13.449Z,3.54
2023-02-22T17:32:16.635Z,3.48
2023-02-22T17:33:19.475Z,3.32
2023-02-22T17:34:22.348Z,3.23
2023-02-22T17:35:25.529Z,3.72
2023-02-22T17:36:28.428Z,3.57
2023-02-22T17:37:31.281Z,3.05
2023-02-22T17:38:34.363Z,3.16
2023-02-22T17:39:37.252Z,3.42
2023-02-22T17:40:40.168Z,3.33
2023-02-22T17:41:43.085Z,3.32
2023-02-22T17:42:46.063Z,3.20
2023-02-22T17:43:49.051Z,3.42
2023-02-22T17:44:51.928Z,3.72
2023-02-22T17:45:54.880Z,3.59
2023-02-22T17:46:57.476Z,3.46
2023-02-22T17:48:00.250Z,3.23
2023-02-22T17:49:03.008Z,3.52
2023-02-22T17:50:05.632Z,4.20
2023-02-22T17:51:08.674Z,3.30
2023-02-22T17:52:11.143Z,3.29
2023-02-22T17:53:13.805Z,3.63
2023-02-22T17:54:16.807Z,3.52
2023-02-22T17:55:20.282Z,3.22
2023-02-22T17:56:23.470Z,3.39
2023-02-22T17:57:26.513Z,3.24
2023-02-22T17:58:29.403Z,3.01
2023-02-22T17:59:32.262Z,3.33
2023-02-22T18:00:35.142Z,3.18
2023-02-22T18:01:38.299Z,3.00
2023-02-22T18:02:41.218Z,2.89
2023-02-22T18:03:43.979Z,2.84
2023-02-22T18:04:46.843Z,2.88
2023-02-22T18:05:49.856Z,3.42
2023-02-22T18:06:52.897Z,2.98
2023-02-22T18:07:55.871Z,2.72
2023-02-22T18:08:58.754Z,2.77
2023-02-22T18:10:01.540Z,2.84
2023-02-22T18:11:04.902Z,3.50
2023-02-22T18:12:07.702Z,2.95
2023-02-22T18:13:10.552Z,3.15
2023-02-22T18:14:13.439Z,2.64
2023-02-22T18:15:16.610Z,2.56
2023-02-22T18:16:19.761Z,2.89
2023-02-22T18:17:22.877Z,2.64
2023-02-22T18:18:25.751Z,2.75
2023-02-22T18:19:28.615Z,2.58
2023-02-22T18:20:31.603Z,2.58
2023-02-22T18:21:34.889Z,2.55
2023-02-22T18:22:38.081Z,2.45
2023-02-22T18:23:41.165Z,2.62
2023-02-22T18:24:43.921Z,2.30
2023-02-22T18:25:47.635Z,2.41
2023-02-22T18:26:51.254Z,2.34
2023-02-22T18:27:54.613Z,2.43
2023-02-22T18:28:57.160Z,2.45
2023-02-22T18:30:00.144Z,2.54
2023-02-22T18:31:03.436Z,2.28
2023-02-22T18:32:06.315Z,2.44
2023-02-22T18:33:09.369Z,2.49
2023-02-22T18:34:12.448Z,2.53
2023-02-22T18:35:15.438Z,2.46
2023-02-22T18:36:18.737Z,2.27
2023-02-22T18:37:21.799Z,2.51
2023-02-22T18:38:24.884Z,2.05
2023-02-22T18:39:27.854Z,2.44
2023-02-22T18:40:30.922Z,2.58
2023-02-22T18:41:33.851Z,2.68
2023-02-22T18:42:36.779Z,2.86
2023-02-22T18:43:39.663Z,2.78
2023-02-22T18:44:42.639Z,2.63
2023-02-22T18:45:45.407Z,2.96
2023-02-22T18:46:48.206Z,2.92
2023-02-22T18:47:50.952Z,3.03
2023-02-22T18:48:54.144Z,3.02
2023-02-22T18:49:56.908Z,2.83
2023-02-22T18:50:59.869Z,2.85
2023-02-22T18:52:02.854Z,2.98
2023-02-22T18:53:05.841Z,3.13
2023-02-22T18:54:08.509Z,2.84
2023-02-22T18:55:11.381Z,2.60
2023-02-22T18:56:14.153Z,2.50
2023-02-22T18:57:17.021Z,2.99
2023-02-22T18:58:19.912Z,2.81
2023-02-22T18:59:23.010Z,2.72
2023-02-22T19:00:25.751Z,2.53
2023-02-22T19:01:28.689Z,2.48
2023-02-22T19:02:31.559Z,2.74
2023-02-22T19:03:34.676Z,2.52
2023-02-22T19:04:37.757Z,3.38
2023-02-22T19:05:40.657Z,2.35
2023-02-22T19:06:43.813Z,2.21
2023-02-22T19:07:46.808Z,2.64
2023-02-22T19:08:50.099Z,2.58
2023-02-22T19:09:53.139Z,2.23
2023-02-22T19:10:56.255Z,2.39
2023-02-22T19:11:59.237Z,2.47
2023-02-22T19:13:02.025Z,2.26
2023-02-22T19:14:04.864Z,2.74
2023-02-22T19:15:08.056Z,2.62
2023-02-22T19:16:10.974Z,2.98
2023-02-22T19:17:13.840Z,2.71
2023-02-22T19:18:16.676Z,2.35
2023-02-22T19:19:19.646Z,2.27
2023-02-22T19:20:22.770Z,2.26
2023-02-22T19:21:25.707Z,2.02
2023-02-22T19:22:28.472Z,2.63
2023-02-22T19:23:34.324Z,2.45
2023-02-22T19:24:35.778Z,2.53
2023-02-22T19:25:39.147Z,2.43
2023-02-22T19:26:42.152Z,2.51
2023-02-22T19:27:45.102Z,2.66
2023-02-22T19:28:48.280Z,2.91
2023-02-22T19:29:51.152Z,2.43
2023-02-22T19:30:54.362Z,2.44
2023-02-22T19:31:57.503Z,2.51
2023-02-22T19:33:00.603Z,2.56
2023-02-22T19:34:03.572Z,2.21
2023-02-22T19:35:06.836Z,2.58
2023-02-22T19:36:10.783Z,2.44
2023-02-22T19:37:13.752Z,2.45
2023-02-22T19:38:16.510Z,2.03
2023-02-22T19:39:19.906Z,2.27
2023-02-22T19:40:23.003Z,2.29
2023-02-22T19:41:26.047Z,2.61
2023-02-22T19:42:29.130Z,2.38
2023-02-22T19:43:32.120Z,2.44
2023-02-22T19:44:35.392Z,2.62
2023-02-22T19:45:38.281Z,2.31
2023-02-22T19:46:41.650Z,2.49
2023-02-22T19:47:44.534Z,2.64
2023-02-22T19:48:47.298Z,2.64
2023-02-22T19:49:50.284Z,2.43
2023-02-22T19:50:53.050Z,2.49
2023-02-22T19:51:56.330Z,2.79
2023-02-22T19:52:59.210Z,2.73
2023-02-22T19:54:02.187Z,2.79
2023-02-22T19:55:05.292Z,2.92
2023-02-22T19:56:08.049Z,2.69
2023-02-22T19:57:11.187Z,2.58
2023-02-22T19:58:14.187Z,3.05
2023-02-22T19:59:17.270Z,3.11
2023-02-22T20:00:20.260Z,3.02
2023-02-22T20:01:23.242Z,3.52
2023-02-22T20:02:26.666Z,3.05
2023-02-22T20:03:29.647Z,2.79
2023-02-22T20:04:32.604Z,3.16
2023-02-22T20:05:35.450Z,2.99
2023-02-22T20:06:38.213Z,3.18
2023-02-22T20:07:41.295Z,3.31
2023-02-22T20:08:44.073Z,3.17
2023-02-22T20:09:46.945Z,2.87
2023-02-22T20:10:49.813Z,3.48
2023-02-22T20:11:52.691Z,3.10
2023-02-22T20:12:55.973Z,2.97
2023-02-22T20:13:58.877Z,3.04
2023-02-22T20:15:01.623Z,2.91
2023-02-22T20:16:04.601Z,3.32
2023-02-22T20:17:07.804Z,3.14
2023-02-22T20:18:10.961Z,3.13
2023-02-22T20:19:13.764Z,3.11
2023-02-22T20:20:16.815Z,3.17
2023-02-22T20:21:20.213Z,3.48
2023-02-22T20:22:23.414Z,3.55
2023-02-22T20:23:26.491Z,3.28
2023-02-22T20:24:29.231Z,3.86
2023-02-22T20:25:32.213Z,3.83
2023-02-22T20:26:35.292Z,3.41
2023-02-22T20:27:38.271Z,3.51
2023-02-22T20:28:41.366Z,3.69
2023-02-22T20:29:44.942Z,3.82
2023-02-22T20:30:47.822Z,3.21
2023-02-22T20:31:50.686Z,3.66
2023-02-22T20:32:54.136Z,3.75
2023-02-22T20:33:57.646Z,3.75
2023-02-22T20:35:01.668Z,3.63
2023-02-22T20:36:04.546Z,3.83
2023-02-22T20:37:07.619Z,3.52
2023-02-22T20:38:10.627Z,4.00
2023-02-22T20:39:13.663Z,4.13
2023-02-22T20:40:16.558Z,4.02
2023-02-22T20:41:19.495Z,3.78
2023-02-22T20:42:22.518Z,4.07
2023-02-22T20:43:25.705Z,4.17
2023-02-22T20:44:28.397Z,4.18
2023-02-22T20:45:30.841Z,3.77
2023-02-22T20:46:33.393Z,4.23
2023-02-22T20:47:36.163Z,3.80
2023-02-22T20:48:38.846Z,3.84
2023-02-22T20:49:42.038Z,3.78
2023-02-22T20:50:45.013Z,3.68
2023-02-22T20:51:47.709Z,3.33
2023-02-22T20:52:50.556Z,3.39
2023-02-22T20:53:53.107Z,3.55
2023-02-22T20:54:56.187Z,3.48
2023-02-22T20:55:59.071Z,3.77
2023-02-22T20:57:01.934Z,3.68
2023-02-22T20:58:04.742Z,4.53
2023-02-22T20:59:07.396Z,3.73
2023-02-22T21:00:10.250Z,3.56
2023-02-22T21:01:13.056Z,3.62
2023-02-22T21:02:15.692Z,4.16
2023-02-22T21:03:18.687Z,3.80
2023-02-22T21:04:21.524Z,3.89
2023-02-22T21:05:24.534Z,4.43
2023-02-22T21:06:27.519Z,4.18
2023-02-22T21:07:30.589Z,4.03
2023-02-22T21:08:33.662Z,4.69
2023-02-22T21:09:36.654Z,4.30
2023-02-22T21:10:39.731Z,4.16
2023-02-22T21:11:42.509Z,4.21
2023-02-22T21:12:46.478Z,4.52
2023-02-22T21:13:49.890Z,4.56
2023-02-22T21:14:53.568Z,4.10
2023-02-22T21:15:56.868Z,4.31
2023-02-22T21:17:00.041Z,4.55
2023-02-22T21:18:03.152Z,3.77
2023-02-22T21:19:06.230Z,4.10
2023-02-22T21:20:09.182Z,3.72
2023-02-22T21:21:12.167Z,4.12
2023-02-22T21:22:15.447Z,4.36
2023-02-22T21:23:18.752Z,4.19
2023-02-22T21:24:22.016Z,4.10
2023-02-22T21:25:25.201Z,4.14
2023-02-22T21:26:28.884Z,4.12
2023-02-22T21:27:32.273Z,4.21
2023-02-22T21:28:50.523Z,4.11
2023-02-22T21:29:40.193Z,3.78
2023-02-22T21:30:43.234Z,4.28
2023-02-22T21:31:46.789Z,4.12
2023-02-22T21:32:49.945Z,3.95
2023-02-22T21:33:52.990Z,3.95
2023-02-22T21:34:55.785Z,4.34
2023-02-22T21:35:58.643Z,4.36
2023-02-22T21:37:02.040Z,4.78
2023-02-22T21:38:04.900Z,4.33
2023-02-22T21:39:07.887Z,4.02
2023-02-22T21:40:10.886Z,4.06
2023-02-22T21:41:13.732Z,4.52
2023-02-22T21:42:16.820Z,4.09
2023-02-22T21:43:19.683Z,4.53
2023-02-22T21:44:22.785Z,4.42
2023-02-22T21:45:25.739Z,4.62
2023-02-22T21:46:28.937Z,4.97
2023-02-22T21:47:32.432Z,4.63
2023-02-22T21:48:35.402Z,4.30
2023-02-22T21:49:38.785Z,4.37
2023-02-22T21:50:41.651Z,4.15
2023-02-22T21:51:44.425Z,3.96
2023-02-22T21:52:47.618Z,4.08
2023-02-22T21:53:50.585Z,4.05
2023-02-22T21:54:53.676Z,3.82
2023-02-22T21:55:56.432Z,4.28
2023-02-22T21:56:59.310Z,3.61
2023-02-22T21:58:02.387Z,3.50
2023-02-22T21:59:05.471Z,3.69
2023-02-22T22:00:08.654Z,3.78
2023-02-22T22:01:11.650Z,3.81
2023-02-22T22:02:15.008Z,4.18
2023-02-22T22:03:18.304Z,4.05
2023-02-22T22:04:21.296Z,4.08
2023-02-22T22:05:24.353Z,4.18
2023-02-22T22:06:27.160Z,4.32
2023-02-22T22:07:30.020Z,4.12
2023-02-22T22:08:32.881Z,3.91
2023-02-22T22:09:35.652Z,4.21
2023-02-22T22:10:38.622Z,3.95
2023-02-22T22:11:41.494Z,4.18
2023-02-22T22:12:44.268Z,4.48
2023-02-22T22:13:47.449Z,3.98
2023-02-22T22:14:50.536Z,4.15
2023-02-22T22:15:53.569Z,4.05
2023-02-22T22:16:56.385Z,3.80
2023-02-22T22:17:59.156Z,3.85
2023-02-22T22:19:02.434Z,3.82
2023-02-22T22:20:05.417Z,4.02
2023-02-22T22:21:08.594Z,4.16
2023-02-22T22:22:11.687Z,4.40
2023-02-22T22:23:14.770Z,4.90
2023-02-22T22:24:17.836Z,4.78
2023-02-22T22:25:20.818Z,4.63
2023-02-22T22:26:23.710Z,4.27
2023-02-22T22:27:26.448Z,4.36
2023-02-22T22:28:29.434Z,4.38
2023-02-22T22:29:32.813Z,4.78
2023-02-22T22:30:35.942Z,4.32
2023-02-22T22:31:39.087Z,4.44
2023-02-22T22:32:42.067Z,4.32
2023-02-22T22:33:44.831Z,4.72
2023-02-22T22:34:48.221Z,4.32
2023-02-22T22:35:51.293Z,4.58
2023-02-22T22:36:54.076Z,4.08
2023-02-22T22:37:57.044Z,3.95
2023-02-22T22:39:00.249Z,4.58
2023-02-22T22:40:03.334Z,4.98
2023-02-22T22:41:06.286Z,5.22
2023-02-22T22:42:09.170Z,4.42
2023-02-22T22:43:12.028Z,4.40
2023-02-22T22:44:15.070Z,4.74
2023-02-22T22:45:18.359Z,4.91
2023-02-22T22:46:21.294Z,4.13
2023-02-22T22:47:24.244Z,4.95
2023-02-22T22:48:27.225Z,3.91
2023-02-22T22:49:30.357Z,4.95
2023-02-22T22:50:33.586Z,5.35
2023-02-22T22:51:36.599Z,4.86
2023-02-22T22:52:39.446Z,4.62
2023-02-22T22:53:42.319Z,4.76
2023-02-22T22:54:45.386Z,4.86
2023-02-22T22:55:48.794Z,4.32
2023-02-22T22:56:51.572Z,4.85
2023-02-22T22:57:54.424Z,4.83
2023-02-22T22:58:57.436Z,5.28
2023-02-22T23:00:00.410Z,5.19
2023-02-22T23:01:03.381Z,4.84
2023-02-22T23:02:06.542Z,5.13
2023-02-22T23:03:09.658Z,4.73
2023-02-22T23:04:12.806Z,5.19
2023-02-22T23:05:15.682Z,5.72
2023-02-22T23:06:18.750Z,4.87
2023-02-22T23:07:21.836Z,5.14
2023-02-22T23:08:24.810Z,4.85
2023-02-22T23:09:27.790Z,4.78
2023-02-22T23:10:30.762Z,4.62
2023-02-22T23:11:33.950Z,5.05
2023-02-22T23:12:36.714Z,5.12
2023-02-22T23:13:39.911Z,4.92
2023-02-22T23:14:42.691Z,5.01
2023-02-22T23:15:45.811Z,5.08
2023-02-22T23:16:49.048Z,4.62
2023-02-22T23:17:52.129Z,4.79
2023-02-22T23:18:55.009Z,4.98
2023-02-22T23:19:58.082Z,5.05
2023-02-22T23:21:01.257Z,4.98
2023-02-22T23:22:04.435Z,4.99
2023-02-22T23:23:08.037Z,5.18
2023-02-22T23:24:11.006Z,5.19
2023-02-22T23:25:14.816Z,4.72
2023-02-22T23:26:18.408Z,5.50
2023-02-22T23:27:22.604Z,5.99
2023-02-22T23:28:26.324Z,5.54
2023-02-22T23:29:29.393Z,5.49
2023-02-22T23:30:32.972Z,5.66
2023-02-22T23:31:36.264Z,5.15
2023-02-22T23:32:39.715Z,5.11
2023-02-22T23:33:42.518Z,5.29
2023-02-22T23:34:45.394Z,4.91
2023-02-22T23:35:48.252Z,4.94
2023-02-22T23:36:51.330Z,5.75
2023-02-22T23:37:54.426Z,6.05
2023-02-22T23:38:57.390Z,5.68
2023-02-22T23:40:00.364Z,5.43
2023-02-22T23:41:03.345Z,5.34
2023-02-22T23:42:06.247Z,4.95
2023-02-22T23:43:09.516Z,5.08
2023-02-22T23:44:12.486Z,4.84
2023-02-22T23:45:15.354Z,5.07
2023-02-22T23:46:18.940Z,4.92
2023-02-22T23:47:22.163Z,5.00
2023-02-22T23:48:25.137Z,4.41
2023-02-22T23:49:28.084Z,4.69
2023-02-22T23:50:30.766Z,5.15
2023-02-22T23:51:33.527Z,4.60
2023-02-22T23:52:36.806Z,5.39
2023-02-22T23:53:40.119Z,5.10
2023-02-22T23:54:42.967Z,4.95
2023-02-22T23:55:46.254Z,4.67
2023-02-22T23:56:49.431Z,4.85
2023-02-22T23:57:52.311Z,4.72
2023-02-22T23:58:55.393Z,4.56
2023-02-22T23:59:58.278Z,4.43
